createdAt,value
2019-01-15T00:00:21.636Z,13.90
2019-01-15T00:01:21.593Z,12.70
2019-01-15T00:02:21.601Z,12.60
2019-01-15T00:03:21.568Z,14.70
2019-01-15T00:04:21.559Z,13.60
2019-01-15T00:05:21.546Z,15.70
2019-01-15T00:06:21.573Z,11.10
2019-01-15T00:07:21.542Z,13.40
2019-01-15T00:08:21.514Z,12.00
2019-01-15T00:09:21.502Z,13.30
2019-01-15T00:10:21.506Z,13.10
2019-01-15T00:11:21.488Z,12.40
2019-01-15T00:12:21.518Z,12.10
2019-01-15T00:13:21.542Z,12.40
2019-01-15T00:14:21.453Z,12.70
2019-01-15T00:15:21.478Z,17.20
2019-01-15T00:16:21.431Z,11.50
2019-01-15T00:17:21.438Z,13.50
2019-01-15T00:18:21.410Z,10.60
2019-01-15T00:19:21.403Z,16.00
2019-01-15T00:20:21.388Z,17.10
2019-01-15T00:21:21.382Z,18.20
2019-01-15T00:22:21.410Z,14.50
2019-01-15T00:23:21.359Z,13.10
2019-01-15T00:24:21.345Z,13.20
2019-01-15T00:25:21.336Z,14.60
2019-01-15T00:26:21.326Z,13.00
2019-01-15T00:27:21.324Z,12.10
2019-01-15T00:28:21.321Z,16.60
2019-01-15T00:29:21.293Z,14.30
2019-01-15T00:30:21.284Z,11.30
2019-01-15T00:31:21.271Z,12.50
2019-01-15T00:32:21.269Z,13.50
2019-01-15T00:33:21.275Z,13.60
2019-01-15T00:34:21.254Z,15.60
2019-01-15T00:35:21.230Z,13.50
2019-01-15T00:36:21.224Z,12.30
2019-01-15T00:37:21.214Z,14.70
2019-01-15T00:38:21.242Z,13.70
2019-01-15T00:39:21.190Z,8.90
2019-01-15T00:40:21.177Z,9.70
2019-01-15T00:41:21.176Z,13.40
2019-01-15T00:42:21.153Z,14.50
2019-01-15T00:43:21.144Z,11.50
2019-01-15T00:44:21.155Z,10.70
2019-01-15T00:45:21.168Z,15.70
2019-01-15T00:46:21.116Z,11.70
2019-01-15T00:47:21.102Z,12.80
2019-01-15T00:48:21.104Z,12.00
2019-01-15T00:49:21.102Z,10.20
2019-01-15T00:50:21.075Z,13.00
2019-01-15T00:51:21.059Z,11.70
2019-01-15T00:52:21.054Z,11.90
2019-01-15T00:53:21.043Z,12.80
2019-01-15T00:54:21.073Z,12.50
2019-01-15T00:55:21.037Z,12.70
2019-01-15T00:56:21.007Z,12.30
2019-01-15T00:57:20.999Z,12.20
2019-01-15T00:58:20.986Z,12.20
2019-01-15T00:59:20.980Z,9.70
2019-01-15T01:00:20.989Z,11.00
2019-01-15T01:01:20.968Z,14.30
2019-01-15T01:02:20.946Z,9.80
2019-01-15T01:03:20.939Z,12.60
2019-01-15T01:04:20.921Z,11.10
2019-01-15T01:05:20.931Z,9.40
2019-01-15T01:06:20.904Z,11.10
2019-01-15T01:07:20.891Z,10.50
2019-01-15T01:08:20.883Z,9.40
2019-01-15T01:09:20.882Z,11.50
2019-01-15T01:10:20.881Z,10.50
2019-01-15T01:11:20.849Z,12.40
2019-01-15T01:12:22.305Z,12.50
2019-01-15T01:13:20.831Z,12.50
2019-01-15T01:14:20.819Z,10.80
2019-01-15T01:15:20.850Z,11.30
2019-01-15T01:16:20.799Z,13.80
2019-01-15T01:17:20.789Z,13.10
2019-01-15T01:18:20.776Z,11.90
2019-01-15T01:19:20.766Z,12.30
2019-01-15T01:20:20.762Z,12.70
2019-01-15T01:21:20.766Z,10.10
2019-01-15T01:22:20.752Z,12.70
2019-01-15T01:23:20.727Z,12.90
2019-01-15T01:24:20.716Z,13.80
2019-01-15T01:25:20.706Z,15.80
2019-01-15T01:26:20.712Z,9.10
2019-01-15T01:27:20.683Z,17.50
2019-01-15T01:28:20.677Z,13.40
2019-01-15T01:29:20.658Z,14.80
2019-01-15T01:30:20.651Z,13.70
2019-01-15T01:31:20.661Z,14.60
2019-01-15T01:32:20.627Z,14.90
2019-01-15T01:33:20.617Z,11.40
2019-01-15T01:34:20.609Z,12.30
2019-01-15T01:35:20.606Z,18.90
2019-01-15T01:36:20.605Z,14.50
2019-01-15T01:37:20.574Z,16.50
2019-01-15T01:38:20.566Z,13.60
2019-01-15T01:39:20.552Z,14.60
2019-01-15T01:40:20.541Z,13.90
2019-01-15T01:41:20.564Z,14.00
2019-01-15T01:42:20.520Z,14.70
2019-01-15T01:43:20.530Z,17.10
2019-01-15T01:44:20.503Z,16.40
2019-01-15T01:45:20.486Z,14.20
2019-01-15T01:46:20.503Z,11.80
2019-01-15T01:47:20.483Z,12.70
2019-01-15T01:48:20.459Z,12.70
2019-01-15T01:49:20.447Z,13.40
2019-01-15T01:50:20.437Z,14.40
2019-01-15T01:51:20.443Z,15.10
2019-01-15T01:52:20.417Z,15.80
2019-01-15T01:53:20.420Z,14.00
2019-01-15T01:54:20.396Z,17.60
2019-01-15T01:55:20.386Z,16.90
2019-01-15T01:56:20.395Z,13.80
2019-01-15T01:57:20.365Z,13.60
2019-01-15T01:58:20.351Z,14.20
2019-01-15T01:59:20.382Z,14.70
2019-01-15T02:00:20.329Z,16.70
2019-01-15T02:01:20.335Z,13.10
2019-01-15T02:02:20.307Z,17.60
2019-01-15T02:03:20.296Z,13.00
2019-01-15T02:04:20.289Z,18.10
2019-01-15T02:05:20.293Z,13.80
2019-01-15T02:06:20.280Z,14.40
2019-01-15T02:07:20.251Z,16.60
2019-01-15T02:08:20.240Z,16.20
2019-01-15T02:09:20.232Z,13.50
2019-01-15T02:10:20.264Z,15.30
2019-01-15T02:11:20.235Z,13.90
2019-01-15T02:12:20.196Z,13.00
2019-01-15T02:13:20.195Z,14.50
2019-01-15T02:14:20.174Z,14.20
2019-01-15T02:15:20.165Z,20.10
2019-01-15T02:16:20.186Z,17.60
2019-01-15T02:17:20.142Z,16.80
2019-01-15T02:18:20.132Z,14.30
2019-01-15T02:19:20.121Z,16.00
2019-01-15T02:20:20.122Z,16.60
2019-01-15T02:21:20.129Z,11.50
2019-01-15T02:22:20.093Z,15.50
2019-01-15T02:23:20.083Z,18.10
2019-01-15T02:24:20.076Z,15.40
2019-01-15T02:25:20.063Z,14.60
2019-01-15T02:26:20.064Z,17.50
2019-01-15T02:27:20.043Z,16.30
2019-01-15T02:28:20.037Z,17.10
2019-01-15T02:29:20.017Z,13.30
2019-01-15T02:30:20.010Z,17.90
2019-01-15T02:31:20.017Z,17.60
2019-01-15T02:32:19.988Z,14.70
2019-01-15T02:33:19.976Z,17.60
2019-01-15T02:34:19.980Z,11.90
2019-01-15T02:35:19.954Z,13.70
2019-01-15T02:36:19.965Z,15.80
2019-01-15T02:37:19.932Z,14.50
2019-01-15T02:38:19.939Z,13.60
2019-01-15T02:39:19.920Z,13.60
2019-01-15T02:40:19.903Z,14.10
2019-01-15T02:41:19.937Z,15.30
2019-01-15T02:42:19.881Z,15.50
2019-01-15T02:43:19.868Z,18.60
2019-01-15T02:44:19.859Z,16.60
2019-01-15T02:45:19.845Z,15.20
2019-01-15T02:46:19.845Z,19.40
2019-01-15T02:47:19.855Z,19.70
2019-01-15T02:48:19.814Z,18.20
2019-01-15T02:49:19.806Z,17.40
2019-01-15T02:50:19.801Z,14.20
2019-01-15T02:51:19.780Z,16.60
2019-01-15T02:52:19.794Z,16.20
2019-01-15T02:53:19.768Z,17.70
2019-01-15T02:54:19.750Z,14.40
2019-01-15T02:55:19.741Z,16.70
2019-01-15T02:56:19.727Z,18.00
2019-01-15T02:57:19.740Z,15.10
2019-01-15T02:58:19.704Z,18.80
2019-01-15T02:59:19.699Z,16.60
2019-01-15T03:00:19.683Z,14.50
2019-01-15T03:01:19.672Z,16.30
2019-01-15T03:02:19.690Z,16.80
2019-01-15T03:03:19.652Z,18.30
2019-01-15T03:04:19.637Z,14.80
2019-01-15T03:05:19.645Z,17.50
2019-01-15T03:06:19.632Z,13.90
2019-01-15T03:07:19.606Z,17.40
2019-01-15T03:08:19.708Z,14.20
2019-01-15T03:09:19.583Z,17.30
2019-01-15T03:10:19.580Z,16.60
2019-01-15T03:11:19.576Z,14.80
2019-01-15T03:12:19.552Z,15.00
2019-01-15T03:13:19.559Z,14.10
2019-01-15T03:14:19.547Z,15.80
2019-01-15T03:15:19.521Z,16.60
2019-01-15T03:16:19.508Z,14.20
2019-01-15T03:17:19.525Z,15.10
2019-01-15T03:18:19.509Z,14.60
2019-01-15T03:19:19.479Z,14.70
2019-01-15T03:20:19.464Z,15.40
2019-01-15T03:21:19.466Z,17.00
2019-01-15T03:22:19.445Z,15.40
2019-01-15T03:23:19.472Z,14.90
2019-01-15T03:24:19.429Z,17.40
2019-01-15T03:25:19.413Z,16.80
2019-01-15T03:26:19.420Z,17.40
2019-01-15T03:27:19.389Z,16.60
2019-01-15T03:28:19.382Z,15.10
2019-01-15T03:29:19.400Z,18.10
2019-01-15T03:30:19.364Z,19.20
2019-01-15T03:31:19.377Z,17.20
2019-01-15T03:32:19.347Z,16.60
2019-01-15T03:33:19.324Z,16.40
2019-01-15T03:34:19.330Z,17.20
2019-01-15T03:35:19.310Z,18.60
2019-01-15T03:36:19.291Z,16.70
2019-01-15T03:37:19.279Z,17.10
2019-01-15T03:38:19.268Z,20.70
2019-01-15T03:39:19.279Z,18.90
2019-01-15T03:40:19.251Z,21.00
2019-01-15T03:41:19.243Z,18.20
2019-01-15T03:42:19.230Z,15.90
2019-01-15T03:43:19.218Z,15.40
2019-01-15T03:44:19.230Z,20.80
2019-01-15T03:45:19.201Z,18.80
2019-01-15T03:46:19.183Z,17.50
2019-01-15T03:47:19.180Z,21.40
2019-01-15T03:48:19.158Z,20.30
2019-01-15T03:49:19.151Z,21.70
2019-01-15T03:50:19.161Z,21.30
2019-01-15T03:51:19.123Z,24.20
2019-01-15T03:52:19.119Z,23.00
2019-01-15T03:53:19.120Z,22.90
2019-01-15T03:54:19.090Z,23.10
2019-01-15T03:55:19.103Z,19.40
2019-01-15T03:56:19.073Z,22.30
2019-01-15T03:57:19.061Z,24.10
2019-01-15T03:58:19.048Z,21.40
2019-01-15T03:59:19.037Z,22.30
2019-01-15T04:00:19.085Z,23.30
2019-01-15T04:01:19.016Z,24.30
2019-01-15T04:02:19.012Z,24.80
2019-01-15T04:03:18.998Z,19.10
2019-01-15T04:04:18.989Z,18.20
2019-01-15T04:05:18.989Z,21.30
2019-01-15T04:06:18.976Z,20.70
2019-01-15T04:07:18.951Z,21.80
2019-01-15T04:08:18.939Z,21.10
2019-01-15T04:09:18.930Z,19.40
2019-01-15T04:10:18.940Z,20.30
2019-01-15T04:11:18.904Z,20.40
2019-01-15T04:12:18.904Z,23.50
2019-01-15T04:13:18.883Z,19.70
2019-01-15T04:14:18.870Z,19.30
2019-01-15T04:15:18.861Z,19.80
2019-01-15T04:16:18.869Z,19.90
2019-01-15T04:17:18.838Z,21.40
2019-01-15T04:18:18.840Z,17.20
2019-01-15T04:19:18.816Z,22.10
2019-01-15T04:20:18.810Z,17.30
2019-01-15T04:21:18.816Z,16.10
2019-01-15T04:22:18.785Z,20.30
2019-01-15T04:23:18.773Z,17.60
2019-01-15T04:24:18.772Z,22.50
2019-01-15T04:25:18.753Z,16.90
2019-01-15T04:26:18.757Z,19.90
2019-01-15T04:27:18.740Z,17.30
2019-01-15T04:28:18.720Z,16.90
2019-01-15T04:29:18.705Z,18.10
2019-01-15T04:30:18.713Z,18.00
2019-01-15T04:31:18.704Z,19.30
2019-01-15T04:32:18.672Z,18.20
2019-01-15T04:33:18.664Z,19.90
2019-01-15T04:34:18.652Z,15.20
2019-01-15T04:35:18.648Z,20.40
2019-01-15T04:36:18.638Z,17.00
2019-01-15T04:37:18.641Z,17.10
2019-01-15T04:38:18.617Z,18.20
2019-01-15T04:39:18.598Z,18.30
2019-01-15T04:40:18.590Z,19.90
2019-01-15T04:41:18.574Z,23.90
2019-01-15T04:42:18.591Z,18.50
2019-01-15T04:43:19.796Z,20.70
2019-01-15T04:44:18.544Z,19.90
2019-01-15T04:45:18.530Z,19.70
2019-01-15T04:46:18.520Z,18.50
2019-01-15T04:47:18.527Z,20.60
2019-01-15T04:48:18.514Z,19.60
2019-01-15T04:49:18.489Z,21.10
2019-01-15T04:50:18.475Z,21.00
2019-01-15T04:51:18.484Z,19.90
2019-01-15T04:52:18.470Z,18.90
2019-01-15T04:53:18.442Z,22.40
2019-01-15T04:54:18.439Z,19.80
2019-01-15T04:55:18.422Z,19.90
2019-01-15T04:56:18.408Z,21.20
2019-01-15T04:57:18.425Z,16.10
2019-01-15T04:58:18.398Z,21.20
2019-01-15T04:59:18.376Z,17.60
2019-01-15T05:00:18.445Z,20.40
2019-01-15T05:01:18.366Z,19.50
2019-01-15T05:02:18.342Z,19.60
2019-01-15T05:03:18.350Z,16.40
2019-01-15T05:04:18.326Z,19.90
2019-01-15T05:05:18.311Z,19.60
2019-01-15T05:06:18.298Z,17.40
2019-01-15T05:07:18.301Z,16.50
2019-01-15T05:08:18.317Z,17.60
2019-01-15T05:09:18.264Z,19.80
2019-01-15T05:10:18.256Z,17.40
2019-01-15T05:11:18.247Z,18.20
2019-01-15T05:12:18.253Z,16.70
2019-01-15T05:13:18.255Z,19.60
2019-01-15T05:14:18.212Z,18.80
2019-01-15T05:15:18.200Z,19.60
2019-01-15T05:16:18.185Z,22.00
2019-01-15T05:17:18.176Z,18.80
2019-01-15T05:18:18.179Z,18.90
2019-01-15T05:19:18.187Z,16.90
2019-01-15T05:20:18.147Z,20.50
2019-01-15T05:21:18.131Z,20.50
2019-01-15T05:22:18.130Z,22.60
2019-01-15T05:23:18.110Z,19.30
2019-01-15T05:24:18.128Z,18.60
2019-01-15T05:25:18.090Z,20.30
2019-01-15T05:26:18.085Z,18.60
2019-01-15T05:27:18.066Z,21.10
2019-01-15T05:28:18.060Z,19.60
2019-01-15T05:29:18.051Z,17.30
2019-01-15T05:30:18.058Z,19.50
2019-01-15T05:31:18.026Z,17.60
2019-01-15T05:32:18.020Z,21.00
2019-01-15T05:33:18.002Z,22.80
2019-01-15T05:34:18.058Z,19.90
2019-01-15T05:35:18.002Z,18.60
2019-01-15T05:36:17.970Z,19.40
2019-01-15T05:37:17.960Z,18.70
2019-01-15T05:38:17.979Z,21.80
2019-01-15T05:39:17.937Z,22.20
2019-01-15T05:40:17.957Z,18.10
2019-01-15T05:41:17.917Z,23.50
2019-01-15T05:42:17.903Z,21.40
2019-01-15T05:43:17.892Z,20.60
2019-01-15T05:44:17.887Z,21.30
2019-01-15T05:45:17.883Z,19.20
2019-01-15T05:46:17.880Z,25.10
2019-01-15T05:47:25.398Z,22.60
2019-01-15T05:48:17.847Z,23.10
2019-01-15T05:49:25.370Z,18.80
2019-01-15T05:50:26.577Z,16.40
2019-01-15T05:51:25.361Z,20.10
2019-01-15T05:52:25.334Z,20.70
2019-01-15T05:53:25.320Z,20.60
2019-01-15T05:54:25.317Z,21.30
2019-01-15T05:55:25.354Z,17.00
2019-01-15T05:56:26.712Z,21.00
2019-01-15T05:57:25.281Z,21.30
2019-01-15T05:58:25.275Z,20.10
2019-01-15T05:59:25.262Z,18.90
2019-01-15T06:00:25.255Z,21.40
2019-01-15T06:01:26.330Z,19.90
2019-01-15T06:02:25.233Z,17.40
2019-01-15T06:03:25.216Z,17.40
2019-01-15T06:04:25.207Z,19.10
2019-01-15T06:05:25.200Z,18.00
2019-01-15T06:06:26.435Z,19.70
2019-01-15T06:07:25.172Z,17.00
2019-01-15T06:08:26.427Z,19.30
2019-01-15T06:09:26.177Z,17.90
2019-01-15T06:10:25.141Z,20.20
2019-01-15T06:11:26.570Z,20.00
2019-01-15T06:12:27.398Z,18.00
2019-01-15T06:13:25.109Z,18.80
2019-01-15T06:14:26.363Z,19.40
2019-01-15T06:15:25.089Z,21.30
2019-01-15T06:16:26.097Z,16.40
2019-01-15T06:17:26.274Z,17.60
2019-01-15T06:18:17.518Z,18.30
2019-01-15T06:19:17.506Z,24.00
2019-01-15T06:20:17.494Z,18.10
2019-01-15T06:21:17.487Z,24.40
2019-01-15T06:22:17.499Z,18.00
2019-01-15T06:23:17.465Z,19.20
2019-01-15T06:24:17.451Z,19.00
2019-01-15T06:25:17.469Z,18.20
2019-01-15T06:26:17.430Z,16.70
2019-01-15T06:27:17.446Z,19.80
2019-01-15T06:28:17.424Z,17.20
2019-01-15T06:29:17.401Z,15.60
2019-01-15T06:30:17.389Z,17.80
2019-01-15T06:31:17.386Z,18.30
2019-01-15T06:32:17.372Z,17.20
2019-01-15T06:33:17.439Z,17.00
2019-01-15T06:34:17.350Z,16.60
2019-01-15T06:35:17.335Z,19.40
2019-01-15T06:36:17.324Z,15.70
2019-01-15T06:37:17.335Z,17.10
2019-01-15T06:38:17.305Z,18.40
2019-01-15T06:39:17.310Z,22.90
2019-01-15T06:40:17.298Z,17.50
2019-01-15T06:41:17.270Z,17.80
2019-01-15T06:42:17.258Z,20.70
2019-01-15T06:43:17.268Z,18.50
2019-01-15T06:44:17.236Z,18.60
2019-01-15T06:45:17.259Z,16.50
2019-01-15T06:46:17.219Z,15.80
2019-01-15T06:47:17.201Z,16.90
2019-01-15T06:48:17.211Z,18.60
2019-01-15T06:49:17.183Z,18.50
2019-01-15T06:50:17.267Z,15.50
2019-01-15T06:51:17.255Z,18.70
2019-01-15T06:52:17.213Z,17.30
2019-01-15T06:53:17.201Z,19.10
2019-01-15T06:54:17.126Z,18.50
2019-01-15T06:55:17.141Z,17.50
2019-01-15T06:56:17.109Z,15.00
2019-01-15T06:57:17.104Z,19.90
2019-01-15T06:58:17.102Z,17.60
2019-01-15T06:59:17.260Z,15.80
2019-01-15T07:00:17.065Z,17.70
2019-01-15T07:01:17.049Z,19.00
2019-01-15T07:02:17.064Z,15.40
2019-01-15T07:03:17.058Z,17.30
2019-01-15T07:04:17.024Z,16.50
2019-01-15T07:05:17.003Z,17.00
2019-01-15T07:06:16.995Z,15.80
2019-01-15T07:07:16.985Z,16.50
2019-01-15T07:08:16.974Z,13.60
2019-01-15T07:09:16.977Z,15.90
2019-01-15T07:10:16.953Z,16.90
2019-01-15T07:11:16.991Z,16.00
2019-01-15T07:12:16.928Z,16.20
2019-01-15T07:13:16.991Z,14.40
2019-01-15T07:14:16.948Z,16.20
2019-01-15T07:15:16.893Z,15.20
2019-01-15T07:16:16.882Z,15.50
2019-01-15T07:17:16.879Z,15.60
2019-01-15T07:18:16.863Z,16.40
2019-01-15T07:19:16.889Z,14.20
2019-01-15T07:20:16.840Z,15.20
2019-01-15T07:21:16.830Z,15.30
2019-01-15T07:22:16.829Z,16.40
2019-01-15T07:23:16.806Z,15.50
2019-01-15T07:24:16.802Z,16.50
2019-01-15T07:25:16.809Z,12.70
2019-01-15T07:26:16.817Z,15.50
2019-01-15T07:27:16.771Z,18.60
2019-01-15T07:28:16.753Z,16.20
2019-01-15T07:29:16.741Z,15.40
2019-01-15T07:30:16.749Z,15.40
2019-01-15T07:31:16.717Z,16.20
2019-01-15T07:32:16.719Z,17.30
2019-01-15T07:33:16.764Z,18.70
2019-01-15T07:34:16.819Z,18.30
2019-01-15T07:35:16.812Z,13.90
2019-01-15T07:36:16.760Z,14.80
2019-01-15T07:37:16.728Z,17.30
2019-01-15T07:38:16.718Z,17.70
2019-01-15T07:39:16.672Z,19.90
2019-01-15T07:40:16.691Z,17.60
2019-01-15T07:41:16.637Z,19.20
2019-01-15T07:42:16.660Z,14.20
2019-01-15T07:43:16.624Z,17.50
2019-01-15T07:44:16.584Z,15.10
2019-01-15T07:45:16.612Z,19.80
2019-01-15T07:46:16.872Z,16.70
2019-01-15T07:47:16.620Z,15.80
2019-01-15T07:48:16.546Z,19.80
2019-01-15T07:49:16.539Z,18.60
2019-01-15T07:50:16.575Z,19.80
2019-01-15T07:51:16.597Z,17.00
2019-01-15T07:52:16.498Z,18.30
2019-01-15T07:53:16.510Z,16.70
2019-01-15T07:54:16.530Z,19.70
2019-01-15T07:55:16.462Z,17.70
2019-01-15T07:56:16.596Z,16.40
2019-01-15T07:57:16.445Z,22.90
2019-01-15T07:58:16.444Z,15.60
2019-01-15T07:59:16.418Z,19.10
2019-01-15T08:00:16.480Z,19.20
2019-01-15T08:01:16.419Z,17.00
2019-01-15T08:02:16.413Z,18.70
2019-01-15T08:03:16.373Z,15.00
2019-01-15T08:04:16.375Z,17.60
2019-01-15T08:05:16.388Z,17.30
2019-01-15T08:06:16.384Z,18.90
2019-01-15T08:07:16.336Z,19.00
2019-01-15T08:08:16.330Z,18.40
2019-01-15T08:09:16.356Z,18.00
2019-01-15T08:10:16.305Z,16.70
2019-01-15T08:11:16.319Z,20.80
2019-01-15T08:12:16.292Z,18.70
2019-01-15T08:13:16.271Z,17.40
2019-01-15T08:14:16.260Z,20.10
2019-01-15T08:15:16.300Z,18.60
2019-01-15T08:16:16.255Z,21.70
2019-01-15T08:17:16.227Z,19.60
2019-01-15T08:18:16.214Z,20.20
2019-01-15T08:19:16.206Z,18.30
2019-01-15T08:20:16.196Z,20.20
2019-01-15T08:21:16.208Z,20.00
2019-01-15T08:22:16.178Z,19.00
2019-01-15T08:23:16.165Z,18.90
2019-01-15T08:24:16.212Z,17.30
2019-01-15T08:25:16.176Z,22.40
2019-01-15T08:26:16.187Z,20.30
2019-01-15T08:27:16.131Z,17.20
2019-01-15T08:28:16.121Z,17.00
2019-01-15T08:29:16.100Z,19.20
2019-01-15T08:30:16.084Z,22.70
2019-01-15T08:31:16.082Z,21.10
2019-01-15T08:32:16.091Z,23.80
2019-01-15T08:33:16.053Z,20.50
2019-01-15T08:34:16.073Z,20.80
2019-01-15T08:35:16.053Z,23.90
2019-01-15T08:36:16.025Z,22.60
2019-01-15T08:37:16.012Z,18.70
2019-01-15T08:38:16.073Z,23.30
2019-01-15T08:39:15.993Z,21.40
2019-01-15T08:40:15.977Z,26.20
2019-01-15T08:41:16.015Z,23.40
2019-01-15T08:42:15.962Z,22.20
2019-01-15T08:43:15.962Z,20.80
2019-01-15T08:44:19.253Z,22.80
2019-01-15T08:45:15.974Z,24.20
2019-01-15T08:46:16.221Z,21.70
2019-01-15T08:47:15.941Z,24.20
2019-01-15T08:48:15.910Z,24.00
2019-01-15T08:49:15.884Z,20.90
2019-01-15T08:50:15.869Z,26.80
2019-01-15T08:51:15.907Z,25.00
2019-01-15T08:52:15.847Z,24.20
2019-01-15T08:53:15.864Z,30.20
2019-01-15T08:54:15.825Z,26.70
2019-01-15T08:55:15.813Z,26.90
2019-01-15T08:56:15.840Z,29.90
2019-01-15T08:57:15.798Z,24.00
2019-01-15T08:58:15.833Z,24.00
2019-01-15T08:59:15.773Z,26.40
2019-01-15T09:00:15.763Z,23.90
2019-01-15T09:01:15.792Z,26.60
2019-01-15T09:02:15.738Z,23.50
2019-01-15T09:03:15.837Z,25.40
2019-01-15T09:04:15.723Z,24.00
2019-01-15T09:05:15.705Z,26.50
2019-01-15T09:06:15.697Z,25.50
2019-01-15T09:07:15.696Z,26.90
2019-01-15T09:08:15.766Z,26.00
2019-01-15T09:09:15.685Z,27.70
2019-01-15T09:10:15.649Z,25.90
2019-01-15T09:11:15.648Z,26.80
2019-01-15T09:12:15.653Z,29.60
2019-01-15T09:13:15.659Z,28.20
2019-01-15T09:14:15.608Z,24.60
2019-01-15T09:15:15.608Z,26.40
2019-01-15T09:16:15.637Z,32.30
2019-01-15T09:17:15.575Z,30.90
2019-01-15T09:18:15.569Z,27.30
2019-01-15T09:19:15.573Z,25.70
2019-01-15T09:20:15.542Z,33.60
2019-01-15T09:21:15.528Z,27.20
2019-01-15T09:22:15.560Z,27.90
2019-01-15T09:23:15.519Z,26.40
2019-01-15T09:24:15.526Z,27.80
2019-01-15T09:25:15.484Z,23.90
2019-01-15T09:26:15.489Z,25.20
2019-01-15T09:27:15.465Z,30.70
2019-01-15T09:28:15.453Z,28.20
2019-01-15T09:29:15.487Z,26.60
2019-01-15T09:30:15.480Z,28.80
2019-01-15T09:31:15.421Z,28.60
2019-01-15T09:32:15.410Z,28.30
2019-01-15T09:33:15.401Z,25.90
2019-01-15T09:34:15.406Z,24.90
2019-01-15T09:35:15.407Z,28.80
2019-01-15T09:36:15.373Z,28.30
2019-01-15T09:37:15.365Z,28.00
2019-01-15T09:38:15.344Z,25.30
2019-01-15T09:39:15.389Z,30.70
2019-01-15T09:40:15.344Z,26.80
2019-01-15T09:41:15.352Z,28.50
2019-01-15T09:42:15.301Z,28.60
2019-01-15T09:43:15.287Z,31.10
2019-01-15T09:44:15.387Z,30.10
2019-01-15T09:45:15.360Z,34.00
2019-01-15T09:46:15.261Z,25.30
2019-01-15T09:47:15.248Z,29.00
2019-01-15T09:48:15.248Z,31.20
2019-01-15T09:49:15.280Z,24.50
2019-01-15T09:50:15.213Z,30.80
2019-01-15T09:51:15.227Z,26.00
2019-01-15T09:52:20.474Z,23.70
2019-01-15T09:53:16.183Z,29.10
2019-01-15T09:54:15.172Z,24.00
2019-01-15T09:55:15.169Z,26.70
2019-01-15T09:56:15.167Z,27.90
2019-01-15T09:57:15.136Z,28.10
2019-01-15T09:58:15.124Z,26.10
2019-01-15T09:59:15.122Z,25.50
2019-01-15T10:00:15.111Z,24.80
2019-01-15T10:01:15.166Z,25.50
2019-01-15T10:02:15.081Z,24.80
2019-01-15T10:03:15.072Z,22.20
2019-01-15T10:04:15.057Z,26.40
2019-01-15T10:05:15.050Z,24.40
2019-01-15T10:06:15.060Z,29.70
2019-01-15T10:07:15.030Z,27.10
2019-01-15T10:08:15.016Z,27.00
2019-01-15T10:09:15.006Z,23.80
2019-01-15T10:10:15.002Z,21.70
2019-01-15T10:11:14.984Z,21.50
2019-01-15T10:12:14.989Z,28.50
2019-01-15T10:13:14.961Z,19.80
2019-01-15T10:14:14.950Z,28.60
2019-01-15T10:15:14.947Z,25.40
2019-01-15T10:16:14.934Z,26.20
2019-01-15T10:17:14.937Z,22.70
2019-01-15T10:18:14.907Z,21.40
2019-01-15T10:19:14.899Z,25.80
2019-01-15T10:20:14.886Z,18.20
2019-01-15T10:21:14.873Z,25.60
2019-01-15T10:22:14.884Z,21.90
2019-01-15T10:23:14.852Z,22.50
2019-01-15T10:24:14.849Z,24.30
2019-01-15T10:25:14.843Z,23.70
2019-01-15T10:26:14.822Z,21.10
2019-01-15T10:27:14.831Z,25.10
2019-01-15T10:28:15.398Z,23.40
2019-01-15T10:29:14.784Z,18.80
2019-01-15T10:30:14.779Z,24.20
2019-01-15T10:31:14.769Z,20.40
2019-01-15T10:32:14.758Z,21.60
2019-01-15T10:33:14.774Z,21.50
2019-01-15T10:34:14.731Z,20.30
2019-01-15T10:35:14.724Z,26.20
2019-01-15T10:36:14.761Z,18.50
2019-01-15T10:37:14.851Z,17.90
2019-01-15T10:38:14.709Z,17.00
2019-01-15T10:39:14.680Z,18.00
2019-01-15T10:40:14.677Z,17.00
2019-01-15T10:41:14.653Z,18.70
2019-01-15T10:42:14.647Z,18.00
2019-01-15T10:43:14.638Z,15.40
2019-01-15T10:44:14.641Z,20.90
2019-01-15T10:45:14.617Z,16.20
2019-01-15T10:46:14.605Z,19.60
2019-01-15T10:47:14.593Z,16.90
2019-01-15T10:48:14.580Z,19.70
2019-01-15T10:49:14.606Z,18.80
2019-01-15T10:50:14.589Z,18.90
2019-01-15T10:51:14.544Z,21.50
2019-01-15T10:52:14.535Z,18.20
2019-01-15T10:53:14.535Z,21.00
2019-01-15T10:54:14.531Z,15.70
2019-01-15T10:55:14.508Z,17.40
2019-01-15T10:56:14.502Z,13.20
2019-01-15T10:57:14.489Z,15.60
2019-01-15T10:58:17.737Z,14.30
2019-01-15T10:59:14.476Z,13.80
2019-01-15T11:00:14.446Z,15.30
2019-01-15T11:01:14.436Z,16.00
2019-01-15T11:02:14.426Z,16.20
2019-01-15T11:03:14.415Z,15.20
2019-01-15T11:04:14.466Z,23.50
2019-01-15T11:05:14.393Z,15.40
2019-01-15T11:06:14.399Z,15.80
2019-01-15T11:07:14.372Z,14.60
2019-01-15T11:08:14.359Z,15.10
2019-01-15T11:09:14.371Z,12.10
2019-01-15T11:10:14.338Z,15.80
2019-01-15T11:11:14.325Z,13.70
2019-01-15T11:12:14.320Z,16.30
2019-01-15T11:13:14.306Z,18.60
2019-01-15T11:14:14.373Z,17.60
2019-01-15T11:15:14.288Z,14.50
2019-01-15T11:16:14.276Z,18.50
2019-01-15T11:17:14.260Z,13.10
2019-01-15T11:18:14.257Z,12.60
2019-01-15T11:19:14.242Z,12.70
2019-01-15T11:20:14.249Z,12.30
2019-01-15T11:21:14.250Z,17.00
2019-01-15T11:22:14.251Z,10.50
2019-01-15T11:23:14.294Z,12.60
2019-01-15T11:24:14.275Z,12.00
2019-01-15T11:25:14.202Z,16.20
2019-01-15T11:26:14.170Z,17.20
2019-01-15T11:27:14.192Z,14.40
2019-01-15T11:28:14.168Z,12.10
2019-01-15T11:29:14.140Z,12.80
2019-01-15T11:30:14.158Z,11.80
2019-01-15T11:31:14.148Z,14.50
2019-01-15T11:32:14.161Z,12.10
2019-01-15T11:33:14.087Z,12.20
2019-01-15T11:34:14.086Z,9.70
2019-01-15T11:35:14.072Z,11.80
2019-01-15T11:36:14.071Z,12.20
2019-01-15T11:37:14.049Z,12.40
2019-01-15T11:38:14.032Z,14.00
2019-01-15T11:39:14.022Z,10.90
2019-01-15T11:40:14.010Z,13.80
2019-01-15T11:41:14.019Z,9.30
2019-01-15T11:42:13.995Z,14.50
2019-01-15T11:43:13.981Z,12.80
2019-01-15T11:44:13.964Z,11.90
2019-01-15T11:45:13.954Z,12.00
2019-01-15T11:46:13.969Z,10.50
2019-01-15T11:47:13.943Z,12.70
2019-01-15T11:48:13.922Z,11.40
2019-01-15T11:49:13.912Z,11.80
2019-01-15T11:50:13.900Z,13.30
2019-01-15T11:51:13.890Z,10.80
2019-01-15T11:52:13.898Z,9.00
2019-01-15T11:53:13.881Z,11.40
2019-01-15T11:54:13.891Z,9.90
2019-01-15T11:55:13.873Z,7.70
2019-01-15T11:56:13.843Z,12.20
2019-01-15T11:57:13.849Z,9.70
2019-01-15T11:58:13.816Z,12.00
2019-01-15T11:59:13.805Z,9.80
2019-01-15T12:00:13.845Z,13.40
2019-01-15T12:01:13.783Z,10.30
2019-01-15T12:02:13.772Z,9.10
2019-01-15T12:03:13.790Z,9.40
2019-01-15T12:04:13.751Z,11.10
2019-01-15T12:05:13.744Z,12.20
2019-01-15T12:06:13.728Z,9.70
2019-01-15T12:07:13.724Z,5.70
2019-01-15T12:08:13.728Z,11.70
2019-01-15T12:09:13.751Z,11.90
2019-01-15T12:10:13.694Z,11.50
2019-01-15T12:11:13.683Z,10.30
2019-01-15T12:12:13.697Z,8.70
2019-01-15T12:13:13.692Z,7.90
2019-01-15T12:14:13.644Z,13.40
2019-01-15T12:15:13.638Z,8.30
2019-01-15T12:16:13.648Z,11.50
2019-01-15T12:17:13.628Z,10.20
2019-01-15T12:18:13.603Z,12.80
2019-01-15T12:19:13.608Z,6.30
2019-01-15T12:20:13.580Z,9.80
2019-01-15T12:21:13.574Z,10.60
2019-01-15T12:22:13.554Z,7.30
2019-01-15T12:23:13.547Z,10.40
2019-01-15T12:24:13.558Z,9.80
2019-01-15T12:25:13.525Z,7.90
2019-01-15T12:26:13.511Z,7.90
2019-01-15T12:27:13.554Z,8.20
2019-01-15T12:28:13.496Z,8.60
2019-01-15T12:29:13.483Z,13.50
2019-01-15T12:30:13.491Z,7.40
2019-01-15T12:31:13.479Z,11.70
2019-01-15T12:32:13.453Z,10.10
2019-01-15T12:33:13.438Z,11.10
2019-01-15T12:34:13.433Z,10.40
2019-01-15T12:35:13.446Z,9.00
2019-01-15T12:36:13.408Z,13.30
2019-01-15T12:37:13.400Z,8.20
2019-01-15T12:38:13.388Z,9.00
2019-01-15T12:39:13.374Z,9.90
2019-01-15T12:40:13.382Z,9.00
2019-01-15T12:41:13.360Z,10.00
2019-01-15T12:42:13.344Z,9.40
2019-01-15T12:43:13.332Z,9.60
2019-01-15T12:44:13.321Z,8.40
2019-01-15T12:45:18.222Z,11.50
2019-01-15T12:46:14.301Z,13.30
2019-01-15T12:47:13.289Z,8.80
2019-01-15T12:48:13.273Z,8.40
2019-01-15T12:49:13.279Z,8.60
2019-01-15T12:50:13.272Z,10.80
2019-01-15T12:51:13.244Z,10.40
2019-01-15T12:52:13.245Z,10.00
2019-01-15T12:53:13.223Z,10.20
2019-01-15T12:54:13.209Z,9.40